Decoded Metar for EPMO ( in ) (IATA:) | Meteo·Mobile Aviation Weather
aviador You're here:

EPMO Decoded Metar

in
Report Time2018-11-12 18:00:00
UTC Time2018-11-12 18:15:12
Flight Rules mvfr MVFR
Wind140° at 03 kt
W.Decomp.*RWY 08: 1.5 kt HW 2.6 kt RCW
W.Rank140° ranks 21
Current wind is below 140° avg. (6.5)
Visibility6000 m
Phenomena:N/A
Clouds:N/A
Expected CloudBase > 1,200 ft AGL from Temp-Dew spread
CeilingNone
Temp10°C
Dew Point07°C (82% RH)
AAT8.2°C
QNH1023 hPa
Raw Report
EPMO 121800Z 14003KT 110V180 6000 NSC 10/07 Q1023=

Extra information for EPMO:More info

Social comments